Carolina Queen III — WDG4825 — position and weather

sailwx.info

Track history (hours):
 
Tides and Currents Weather Stations Pressure Air Temp Water Temp Dewpoint Dewpoint Depression Visibility Wind Speed Wind Dir Waves Ship Positions

Carolina Queen III

Owner: Carolina Queen II, Inc., Seaford, VA. More information available from US FCC via Universal Licensing System and Coast Guard Vessel Documentation Center.

Last reported at 2017-Oct-12 04:06 UTC. Time now 2017-Oct-19 14:19 UTC.
Position N 37°01' W 076°03'.

Type: Fishing. MMSI: 367540520.

Date/timePositionNaut miles runAvg speedWind from/ knotsBaromVisibWave heightAir tempDewpointWater temp
2017-Oct-12 04:06N 37°01' W 076°03'1 9.7
2017-Oct-12 04:00N 37°01' W 076°02'  
2017-Oct-09 07:10N 39°37' W 072°52'1 5.0
2017-Oct-09 06:54N 39°36' W 072°53'0 0.1
2017-Oct-09 06:30N 39°36' W 072°53'1 0.0
2017-Oct-08 09:32N 39°35' W 072°52'0 2.0
2017-Oct-08 09:21N 39°35' W 072°53'2 0.3
2017-Oct-08 03:12N 39°37' W 072°52'3 0.3
2017-Oct-07 15:24N 39°39' W 072°56'3 3.4
2017-Oct-07 14:36N 39°38' W 072°52'1 0.2
2017-Oct-07 11:34N 39°38' W 072°51'1 3.5
2017-Oct-07 11:25N 39°39' W 072°51'0 0.3
2017-Oct-07 09:47N 39°38' W 072°51'1 4.6
2017-Oct-07 09:28N 39°37' W 072°51'0 0.4
2017-Oct-07 08:45N 39°37' W 072°51'1 2.7
2017-Oct-07 08:21N 39°38' W 072°51'2 4.5
2017-Oct-07 08:00N 39°38' W 072°53'1 1.7
2017-Oct-07 07:15N 39°38' W 072°51'1 0.9
2017-Oct-07 06:16N 39°39' W 072°51'1 1.3
2017-Oct-07 05:29N 39°38' W 072°52'1 1.2
2017-Oct-07 04:38N 39°37' W 072°52'1 2.2
2017-Oct-07 04:14N 39°38' W 072°52'3 0.1
2017-Oct-05 17:50N 39°39' W 072°56'0 0.1
2017-Oct-05 14:35N 39°39' W 072°55'2 4.7
2017-Oct-05 14:07N 39°38' W 072°53'1 4.4
2017-Oct-05 13:54N 39°37' W 072°52'2 3.7
2017-Oct-05 13:22N 39°38' W 072°55'1 2.2
2017-Oct-05 12:58N 39°39' W 072°55'2 3.8
2017-Oct-05 12:28N 39°38' W 072°53'1 1.2
2017-Oct-05 12:00N 39°38' W 072°53'2 1.6
2017-Oct-05 10:38N 39°38' W 072°50'0 0.9
2017-Oct-05 10:30N 39°38' W 072°50'0 0.9
2017-Oct-05 10:00N 39°37' W 072°51'1 0.6
2017-Oct-05 08:00N 39°36' W 072°50'1 1.4
2017-Oct-05 07:30N 39°36' W 072°49'1 2.2
2017-Oct-05 06:57N 39°36' W 072°48'1 2.0
2017-Oct-05 06:14N 39°37' W 072°46'0 1.9
2017-Oct-05 06:00N 39°37' W 072°45'0 0.7
2017-Oct-05 05:30N 39°36' W 072°46'0 0.9
2017-Oct-05 05:01N 39°36' W 072°46'0 0.9
2017-Oct-05 04:30N 39°36' W 072°47'1 1.0
2017-Oct-05 04:00N 39°36' W 072°47'1 2.8
2017-Oct-05 03:30N 39°35' W 072°48'3 4.9
2017-Oct-05 02:58N 39°32' W 072°48'1 2.4
2017-Oct-05 02:29N 39°31' W 072°49'2 1.2
2017-Oct-05 00:48N 39°32' W 072°47'1 0.6
2017-Oct-04 23:24N 39°32' W 072°48'3 0.2
2017-Oct-04 08:53N 39°31' W 072°52'3 0.3
2017-Oct-03 23:38N 39°31' W 072°48'  
Track history (hours):
 
Tides and Currents Weather Stations Pressure Air Temp Water Temp Dewpoint Dewpoint Depression Visibility Wind Speed Wind Dir Waves Ship Positions

Carolina Queen III

Owner: Carolina Queen II, Inc., Seaford, VA. More information available from US FCC via Universal Licensing System and Coast Guard Vessel Documentation Center.

Last reported at 2017-Oct-12 04:06 UTC. Time now 2017-Oct-19 14:19 UTC.
Position N 37°01' W 076°03'.

Type: Fishing. MMSI: 367540520.

Date/timePositionNaut miles runAvg speedWind from/ knotsBaromVisibWave heightAir tempDewpointWater temp
2017-Oct-12 04:06N 37°01' W 076°03'1 9.7
2017-Oct-12 04:00N 37°01' W 076°02'  
2017-Oct-09 07:10N 39°37' W 072°52'1 5.0
2017-Oct-09 06:54N 39°36' W 072°53'0 0.1
2017-Oct-09 06:30N 39°36' W 072°53'1 0.0
2017-Oct-08 09:32N 39°35' W 072°52'0 2.0
2017-Oct-08 09:21N 39°35' W 072°53'2 0.3
2017-Oct-08 03:12N 39°37' W 072°52'3 0.3
2017-Oct-07 15:24N 39°39' W 072°56'3 3.4
2017-Oct-07 14:36N 39°38' W 072°52'1 0.2
2017-Oct-07 11:34N 39°38' W 072°51'1 3.5
2017-Oct-07 11:25N 39°39' W 072°51'0 0.3
2017-Oct-07 09:47N 39°38' W 072°51'1 4.6
2017-Oct-07 09:28N 39°37' W 072°51'0 0.4
2017-Oct-07 08:45N 39°37' W 072°51'1 2.7
2017-Oct-07 08:21N 39°38' W 072°51'2 4.5
2017-Oct-07 08:00N 39°38' W 072°53'1 1.7
2017-Oct-07 07:15N 39°38' W 072°51'1 0.9
2017-Oct-07 06:16N 39°39' W 072°51'1 1.3
2017-Oct-07 05:29N 39°38' W 072°52'1 1.2
2017-Oct-07 04:38N 39°37' W 072°52'1 2.2
2017-Oct-07 04:14N 39°38' W 072°52'3 0.1
2017-Oct-05 17:50N 39°39' W 072°56'0 0.1
2017-Oct-05 14:35N 39°39' W 072°55'2 4.7
2017-Oct-05 14:07N 39°38' W 072°53'1 4.4
2017-Oct-05 13:54N 39°37' W 072°52'2 3.7
2017-Oct-05 13:22N 39°38' W 072°55'1 2.2
2017-Oct-05 12:58N 39°39' W 072°55'2 3.8
2017-Oct-05 12:28N 39°38' W 072°53'1 1.2
2017-Oct-05 12:00N 39°38' W 072°53'2 1.6
2017-Oct-05 10:38N 39°38' W 072°50'0 0.9
2017-Oct-05 10:30N 39°38' W 072°50'0 0.9
2017-Oct-05 10:00N 39°37' W 072°51'1 0.6
2017-Oct-05 08:00N 39°36' W 072°50'1 1.4
2017-Oct-05 07:30N 39°36' W 072°49'1 2.2
2017-Oct-05 06:57N 39°36' W 072°48'1 2.0
2017-Oct-05 06:14N 39°37' W 072°46'0 1.9
2017-Oct-05 06:00N 39°37' W 072°45'0 0.7
2017-Oct-05 05:30N 39°36' W 072°46'0 0.9
2017-Oct-05 05:01N 39°36' W 072°46'0 0.9
2017-Oct-05 04:30N 39°36' W 072°47'1 1.0
2017-Oct-05 04:00N 39°36' W 072°47'1 2.8
2017-Oct-05 03:30N 39°35' W 072°48'3 4.9
2017-Oct-05 02:58N 39°32' W 072°48'1 2.4
2017-Oct-05 02:29N 39°31' W 072°49'2 1.2
2017-Oct-05 00:48N 39°32' W 072°47'1 0.6
2017-Oct-04 23:24N 39°32' W 072°48'3 0.2
2017-Oct-04 08:53N 39°31' W 072°52'3 0.3
2017-Oct-03 23:38N 39°31' W 072°48'  

Dump ship's entire track history